Time;durP1;ratioP1;P1;durP2;ratioP2;P2;SDS_P1;SDS_P2;PMS_P1;PMS_P2;Temp;Humidity;BMP_temperature;BMP_pressure;BME280_temperature;BME280_humidity;BME280_pressure;Samples;Min_cycle;Max_cycle;Signal;HPM_P1;HPM_P2
2023/03/15 00:00:02;;;;;;;5.10;2.60;;;;;;;;;;5034375;28;20599;-69
2023/03/15 00:02:28;;;;;;;7.13;2.90;;;;;;;;;;5034434;28;20076;-69
2023/03/15 00:04:53;;;;;;;5.90;2.95;;;;;;;;;;5034191;28;20072;-69
2023/03/15 00:07:24;;;;;;;8.52;2.50;;;;;;;;;;5034343;28;20120;-69
2023/03/15 00:09:51;;;;;;;5.40;2.60;;;;;;;;;;5035929;28;20075;-69
2023/03/15 00:12:17;;;;;;;6.88;2.45;;;;;;;;;;5035738;28;20021;-69
2023/03/15 00:14:43;;;;;;;7.95;2.42;;;;;;;;;;5035718;28;20113;-69
2023/03/15 00:17:10;;;;;;;4.10;2.50;;;;;;;;;;5044782;28;20433;-69
2023/03/15 00:19:36;;;;;;;6.50;2.50;;;;;;;;;;5034432;28;20032;-69
2023/03/15 00:22:02;;;;;;;3.53;2.63;;;;;;;;;;5035641;28;20033;-69
2023/03/15 00:24:27;;;;;;;5.53;2.58;;;;;;;;;;5035453;28;20037;-69
2023/03/15 00:26:53;;;;;;;6.10;2.63;;;;;;;;;;5035464;28;20028;-70
2023/03/15 00:29:18;;;;;;;5.10;2.50;;;;;;;;;;5035365;28;20022;-69
2023/03/15 00:31:44;;;;;;;5.10;3.00;;;;;;;;;;5035432;28;20018;-68
2023/03/15 00:34:12;;;;;;;6.22;2.80;;;;;;;;;;5035543;28;20108;-69
2023/03/15 00:36:42;;;;;;;4.93;2.63;;;;;;;;;;5035272;28;20144;-69
2023/03/15 00:39:08;;;;;;;5.03;2.85;;;;;;;;;;5033985;28;20520;-69
2023/03/15 00:41:34;;;;;;;5.20;2.95;;;;;;;;;;5034272;28;20041;-69
2023/03/15 00:43:59;;;;;;;5.78;2.65;;;;;;;;;;5033881;28;20489;-69
2023/03/15 00:46:25;;;;;;;4.55;2.55;;;;;;;;;;5034321;28;20017;-69
2023/03/15 00:48:51;;;;;;;4.78;2.78;;;;;;;;;;5033841;28;20385;-69
2023/03/15 00:51:20;;;;;;;2.97;2.40;;;;;;;;;;5034211;28;20107;-69
2023/03/15 00:53:47;;;;;;;5.03;2.50;;;;;;;;;;5033397;28;20072;-69
2023/03/15 00:56:16;;;;;;;4.43;2.65;;;;;;;;;;5033798;28;20029;-69
2023/03/15 00:58:41;;;;;;;6.28;2.97;;;;;;;;;;5033663;28;20017;-69
2023/03/15 01:01:16;;;;;;;3.22;2.50;;;;;;;;;;5033813;28;20024;-68
2023/03/15 01:03:42;;;;;;;7.00;2.70;;;;;;;;;;5033545;28;20112;-68
2023/03/15 01:06:11;;;;;;;4.60;2.88;;;;;;;;;;5033614;28;20037;-71
2023/03/15 01:08:37;;;;;;;5.00;2.33;;;;;;;;;;5033545;28;20064;-68
2023/03/15 01:11:06;;;;;;;7.05;2.78;;;;;;;;;;5033593;28;20104;-70
2023/03/15 01:13:32;;;;;;;5.07;2.13;;;;;;;;;;5033480;28;20037;-70
2023/03/15 01:15:57;;;;;;;6.47;2.67;;;;;;;;;;5033501;28;20037;-69
2023/03/15 01:18:23;;;;;;;5.68;2.47;;;;;;;;;;5033409;28;20037;-70
2023/03/15 01:20:49;;;;;;;3.97;2.60;;;;;;;;;;5033416;28;20017;-71
2023/03/15 01:23:15;;;;;;;3.72;2.53;;;;;;;;;;5033379;28;20064;-70
2023/03/15 01:25:40;;;;;;;5.53;2.40;;;;;;;;;;5033574;28;20485;-70
2023/03/15 01:28:06;;;;;;;4.95;2.65;;;;;;;;;;5033535;28;20378;-70
2023/03/15 01:30:32;;;;;;;3.22;2.47;;;;;;;;;;5047398;28;20025;-69
2023/03/15 01:32:58;;;;;;;4.95;2.70;;;;;;;;;;5051788;28;20025;-68
2023/03/15 01:35:23;;;;;;;5.53;2.78;;;;;;;;;;5051780;28;21711;-69
2023/03/15 01:37:50;;;;;;;4.13;2.45;;;;;;;;;;4998938;28;1481423;-69
2023/03/15 01:40:16;;;;;;;5.93;3.05;;;;;;;;;;5053923;28;20520;-68
2023/03/15 01:43:03;;;;;;;4.03;2.50;;;;;;;;;;5050929;28;20049;-69
2023/03/15 01:46:08;;;;;;;5.95;2.55;;;;;;;;;;5053968;28;20523;-70
2023/03/15 01:48:56;;;;;;;5.03;2.72;;;;;;;;;;5048935;28;20135;-69
2023/03/15 01:51:24;;;;;;;4.22;2.65;;;;;;;;;;5052562;28;20024;-69
2023/03/15 01:54:22;;;;;;;5.18;2.67;;;;;;;;;;5053772;28;20055;-70
2023/03/15 01:56:59;;;;;;;4.70;2.13;;;;;;;;;;5054057;28;20029;-67
2023/03/15 01:59:41;;;;;;;5.32;2.40;;;;;;;;;;5053726;28;20029;-67
2023/03/15 02:02:07;;;;;;;4.28;2.28;;;;;;;;;;5053932;28;20358;-69
2023/03/15 02:04:36;;;;;;;5.00;2.78;;;;;;;;;;5052813;28;20032;-68
2023/03/15 02:07:03;;;;;;;5.27;2.60;;;;;;;;;;5053954;28;20385;-67
2023/03/15 02:09:43;;;;;;;3.20;2.40;;;;;;;;;;5053528;28;20056;-68
2023/03/15 02:12:09;;;;;;;4.50;2.70;;;;;;;;;;5052580;28;20035;-70
2023/03/15 02:14:35;;;;;;;7.32;2.90;;;;;;;;;;5053724;28;20444;-71
2023/03/15 02:17:01;;;;;;;3.33;2.53;;;;;;;;;;5052742;28;20032;-71
2023/03/15 02:20:07;;;;;;;3.85;2.28;;;;;;;;;;5052689;28;20078;-70
2023/03/15 02:22:54;;;;;;;4.68;2.70;;;;;;;;;;5044401;28;20037;-71
2023/03/15 02:25:45;;;;;;;4.22;2.67;;;;;;;;;;5052351;28;20099;-70
2023/03/15 02:28:14;;;;;;;5.18;2.55;;;;;;;;;;5043088;28;20032;-71
2023/03/15 02:30:41;;;;;;;3.15;2.30;;;;;;;;;;5053452;28;20366;-71
2023/03/15 02:33:15;;;;;;;4.90;2.25;;;;;;;;;;5053035;28;20025;-71
2023/03/15 02:35:40;;;;;;;6.35;2.67;;;;;;;;;;5052936;28;20123;-69
2023/03/15 02:38:06;;;;;;;3.83;2.05;;;;;;;;;;5052764;28;20136;-70
2023/03/15 02:40:32;;;;;;;3.60;2.45;;;;;;;;;;5052811;28;20090;-71
2023/03/15 02:43:07;;;;;;;5.10;2.58;;;;;;;;;;5052854;28;20036;-71
2023/03/15 02:45:36;;;;;;;3.70;2.60;;;;;;;;;;5053034;28;20098;-69
2023/03/15 02:48:04;;;;;;;4.50;2.30;;;;;;;;;;5053113;28;20021;-68
2023/03/15 02:50:29;;;;;;;5.32;2.55;;;;;;;;;;5052949;28;20055;-70
2023/03/15 02:52:55;;;;;;;3.05;2.40;;;;;;;;;;5052975;28;20025;-69
2023/03/15 02:55:21;;;;;;;6.30;2.53;;;;;;;;;;5052608;28;20051;-70
2023/03/15 02:57:47;;;;;;;2.95;2.38;;;;;;;;;;5052635;28;20017;-71
2023/03/15 03:00:13;;;;;;;3.92;2.45;;;;;;;;;;5052521;28;20040;-71
2023/03/15 03:02:39;;;;;;;4.15;2.38;;;;;;;;;;5052825;28;20048;-71
2023/03/15 03:05:05;;;;;;;2.70;2.45;;;;;;;;;;5052715;28;20354;-71
2023/03/15 03:07:31;;;;;;;4.95;2.45;;;;;;;;;;5052614;28;20044;-71
2023/03/15 03:09:56;;;;;;;3.50;2.35;;;;;;;;;;5052773;28;20021;-72
2023/03/15 03:12:22;;;;;;;4.00;2.35;;;;;;;;;;5052763;28;20354;-69
2023/03/15 03:14:48;;;;;;;3.53;2.50;;;;;;;;;;5067904;28;20043;-71
2023/03/15 03:17:14;;;;;;;3.25;2.85;;;;;;;;;;5052337;28;20470;-68
2023/03/15 03:19:39;;;;;;;3.83;2.20;;;;;;;;;;5052299;28;20040;-71
2023/03/15 03:22:05;;;;;;;5.05;2.70;;;;;;;;;;5052359;28;20109;-70
2023/03/15 03:24:32;;;;;;;4.97;2.20;;;;;;;;;;5052203;28;20124;-69
2023/03/15 03:26:58;;;;;;;3.05;2.20;;;;;;;;;;5052326;28;20031;-69
2023/03/15 03:29:24;;;;;;;3.30;2.15;;;;;;;;;;5052238;28;20037;-70
2023/03/15 03:31:50;;;;;;;2.85;2.38;;;;;;;;;;5052289;28;20489;-71
2023/03/15 03:34:15;;;;;;;3.85;2.40;;;;;;;;;;5052187;28;20032;-68
2023/03/15 03:36:44;;;;;;;2.88;2.20;;;;;;;;;;5052230;28;20021;-67
2023/03/15 03:39:10;;;;;;;4.43;2.58;;;;;;;;;;5052025;28;20170;-71
2023/03/15 03:41:35;;;;;;;3.22;2.45;;;;;;;;;;5052283;28;20496;-69
2023/03/15 03:44:01;;;;;;;2.72;2.50;;;;;;;;;;5052322;28;20033;-69
2023/03/15 03:46:27;;;;;;;3.08;2.10;;;;;;;;;;5052212;28;20090;-70
2023/03/15 03:48:53;;;;;;;2.85;2.00;;;;;;;;;;5052024;28;20040;-67
2023/03/15 03:51:22;;;;;;;4.50;2.30;;;;;;;;;;5052094;28;20035;-67
2023/03/15 03:53:47;;;;;;;3.25;2.35;;;;;;;;;;5052088;28;20358;-68
2023/03/15 03:56:13;;;;;;;3.58;2.22;;;;;;;;;;5052104;28;20064;-67
2023/03/15 03:58:38;;;;;;;5.35;2.50;;;;;;;;;;5052034;28;20492;-67
2023/03/15 04:01:04;;;;;;;3.22;2.17;;;;;;;;;;5052012;28;20031;-67
2023/03/15 04:03:30;;;;;;;4.13;2.42;;;;;;;;;;5052215;28;20049;-66
2023/03/15 04:05:57;;;;;;;3.15;2.40;;;;;;;;;;5051797;28;20029;-71
2023/03/15 04:08:24;;;;;;;2.72;2.25;;;;;;;;;;5052158;28;20354;-70
2023/03/15 04:10:54;;;;;;;3.95;2.30;;;;;;;;;;5051916;28;20025;-71
2023/03/15 04:13:21;;;;;;;3.05;2.10;;;;;;;;;;5051781;28;20532;-71
2023/03/15 04:15:47;;;;;;;6.95;2.58;;;;;;;;;;5051794;28;20033;-70
2023/03/15 04:18:13;;;;;;;5.15;2.20;;;;;;;;;;5051730;28;20125;-71
2023/03/15 04:20:45;;;;;;;8.23;2.97;;;;;;;;;;5051778;28;20484;-71
2023/03/15 04:23:15;;;;;;;4.72;2.20;;;;;;;;;;5051793;28;20480;-70
2023/03/15 04:25:41;;;;;;;3.78;2.50;;;;;;;;;;5051762;28;20037;-71
2023/03/15 04:28:13;;;;;;;2.38;1.88;;;;;;;;;;5053048;28;20067;-71
2023/03/15 04:30:41;;;;;;;3.55;2.20;;;;;;;;;;5055466;28;20025;-71
2023/03/15 04:33:08;;;;;;;3.92;2.30;;;;;;;;;;5055383;28;20377;-71
2023/03/15 04:35:36;;;;;;;4.20;2.15;;;;;;;;;;5055306;28;20067;-69
2023/03/15 04:38:02;;;;;;;3.30;2.00;;;;;;;;;;5055149;28;20037;-68
2023/03/15 04:40:29;;;;;;;3.67;2.30;;;;;;;;;;5055221;28;20075;-69
2023/03/15 04:42:55;;;;;;;3.63;2.25;;;;;;;;;;5055533;28;20021;-70
2023/03/15 04:45:24;;;;;;;3.67;2.40;;;;;;;;;;5055027;28;20155;-70
2023/03/15 04:47:51;;;;;;;2.90;2.10;;;;;;;;;;5070507;28;20493;-68
2023/03/15 04:50:17;;;;;;;3.28;2.30;;;;;;;;;;5053839;28;20112;-70
2023/03/15 04:52:42;;;;;;;3.53;2.47;;;;;;;;;;5055031;28;20032;-72
2023/03/15 04:55:09;;;;;;;3.47;2.30;;;;;;;;;;5054906;28;20021;-70
2023/03/15 04:57:34;;;;;;;4.20;2.50;;;;;;;;;;5055182;28;20032;-70
2023/03/15 05:00:00;;;;;;;4.82;2.45;;;;;;;;;;5054844;28;20025;-70
2023/03/15 05:02:25;;;;;;;3.13;2.28;;;;;;;;;;5054812;28;20033;-71
2023/03/15 05:04:51;;;;;;;3.20;2.10;;;;;;;;;;5055017;28;20033;-69
2023/03/15 05:07:17;;;;;;;4.30;2.10;;;;;;;;;;5054735;28;20029;-69
2023/03/15 05:09:45;;;;;;;2.45;2.03;;;;;;;;;;5054691;28;20021;-69
2023/03/15 05:12:11;;;;;;;3.47;1.90;;;;;;;;;;5054581;28;20078;-69
2023/03/15 05:14:37;;;;;;;2.78;2.22;;;;;;;;;;5054853;28;20412;-70
2023/03/15 05:17:03;;;;;;;4.45;2.28;;;;;;;;;;5054572;28;20021;-68
2023/03/15 05:19:33;;;;;;;2.88;2.10;;;;;;;;;;5054406;28;20032;-69
2023/03/15 05:22:00;;;;;;;3.13;2.30;;;;;;;;;;5054486;28;20021;-70
2023/03/15 05:24:25;;;;;;;4.07;2.13;;;;;;;;;;5054308;28;20037;-70
2023/03/15 05:26:53;;;;;;;2.95;2.25;;;;;;;;;;5054376;28;20025;-69
2023/03/15 05:29:20;;;;;;;3.72;2.45;;;;;;;;;;5054247;28;20530;-70
2023/03/15 05:31:46;;;;;;;3.83;2.42;;;;;;;;;;5052842;28;20033;-70
2023/03/15 05:34:12;;;;;;;3.13;2.30;;;;;;;;;;5054167;28;20029;-70
2023/03/15 05:36:38;;;;;;;4.07;2.33;;;;;;;;;;5054211;28;20017;-70
2023/03/15 05:39:04;;;;;;;3.25;2.17;;;;;;;;;;5052963;28;20049;-70
2023/03/15 05:41:30;;;;;;;3.50;2.08;;;;;;;;;;5053875;28;20020;-71
2023/03/15 05:43:56;;;;;;;4.20;2.30;;;;;;;;;;5053814;28;20029;-70
2023/03/15 05:46:22;;;;;;;3.22;2.22;;;;;;;;;;5053950;28;20033;-70
2023/03/15 05:48:48;;;;;;;4.80;2.15;;;;;;;;;;5069286;28;20025;-66
2023/03/15 05:51:14;;;;;;;3.00;2.28;;;;;;;;;;5053960;28;20196;-70
2023/03/15 05:53:40;;;;;;;2.75;2.33;;;;;;;;;;5053873;28;20028;-70
2023/03/15 05:56:06;;;;;;;2.95;2.40;;;;;;;;;;5053803;28;20025;-71
2023/03/15 05:58:31;;;;;;;3.65;2.22;;;;;;;;;;5053727;28;20499;-70
2023/03/15 06:00:57;;;;;;;3.00;2.10;;;;;;;;;;5053682;28;20068;-70
2023/03/15 06:03:23;;;;;;;2.25;2.03;;;;;;;;;;5053620;28;20040;-70
2023/03/15 06:05:48;;;;;;;3.05;2.15;;;;;;;;;;5053553;28;20033;-69
2023/03/15 06:08:14;;;;;;;2.67;2.17;;;;;;;;;;5053568;28;20040;-70
2023/03/15 06:10:39;;;;;;;3.42;2.58;;;;;;;;;;5053566;28;20029;-69
2023/03/15 06:13:05;;;;;;;3.38;2.42;;;;;;;;;;5053693;28;20036;-67
2023/03/15 06:15:31;;;;;;;2.45;2.10;;;;;;;;;;5053734;28;20032;-69
2023/03/15 06:17:57;;;;;;;2.53;2.33;;;;;;;;;;5053377;28;20513;-67
2023/03/15 06:20:22;;;;;;;3.38;2.22;;;;;;;;;;5053307;28;20033;-69
2023/03/15 06:22:48;;;;;;;2.53;1.85;;;;;;;;;;5053508;28;20104;-70
2023/03/15 06:25:14;;;;;;;2.95;2.20;;;;;;;;;;5052082;28;20033;-68
2023/03/15 06:27:39;;;;;;;2.33;1.98;;;;;;;;;;5053486;28;20428;-71
2023/03/15 06:30:06;;;;;;;3.15;2.22;;;;;;;;;;5068612;28;20392;-68
2023/03/15 06:32:31;;;;;;;2.25;1.95;;;;;;;;;;5053349;28;20029;-67
2023/03/15 06:34:57;;;;;;;3.92;2.15;;;;;;;;;;5053030;28;20036;-68
2023/03/15 06:37:22;;;;;;;3.63;2.42;;;;;;;;;;5052815;28;20041;-70
2023/03/15 06:39:50;;;;;;;2.75;1.98;;;;;;;;;;5052953;28;20025;-69
2023/03/15 06:42:16;;;;;;;2.88;2.25;;;;;;;;;;5053163;28;20381;-70
2023/03/15 06:44:42;;;;;;;2.53;2.05;;;;;;;;;;5053078;28;20032;-70
2023/03/15 06:47:10;;;;;;;2.80;1.88;;;;;;;;;;5052998;28;20067;-69
2023/03/15 06:49:36;;;;;;;2.78;2.05;;;;;;;;;;5053046;28;20024;-67
2023/03/15 06:52:03;;;;;;;2.65;2.05;;;;;;;;;;5052609;28;20366;-69
2023/03/15 06:54:29;;;;;;;3.65;2.38;;;;;;;;;;5052707;28;20473;-69
2023/03/15 06:56:55;;;;;;;2.53;2.33;;;;;;;;;;5052613;28;20098;-70
2023/03/15 06:59:21;;;;;;;2.58;2.30;;;;;;;;;;5052565;28;20080;-71
2023/03/15 07:01:47;;;;;;;2.80;2.22;;;;;;;;;;5052520;28;20021;-71
2023/03/15 07:04:12;;;;;;;2.65;2.08;;;;;;;;;;5052661;28;20029;-68
2023/03/15 07:06:38;;;;;;;2.63;2.03;;;;;;;;;;5052679;28;20361;-70
2023/03/15 07:09:04;;;;;;;4.75;2.03;;;;;;;;;;5052408;28;20029;-69
2023/03/15 07:11:31;;;;;;;4.00;2.30;;;;;;;;;;5052284;28;20036;-70
2023/03/15 07:13:57;;;;;;;2.25;2.03;;;;;;;;;;5052421;28;20025;-71
2023/03/15 07:16:24;;;;;;;2.28;2.08;;;;;;;;;;5051123;28;20036;-70
2023/03/15 07:18:49;;;;;;;2.30;1.80;;;;;;;;;;5052687;28;20095;-69
2023/03/15 07:21:15;;;;;;;2.40;2.03;;;;;;;;;;5052291;28;20476;-70
2023/03/15 07:23:41;;;;;;;2.70;1.95;;;;;;;;;;5052590;28;20025;-69
2023/03/15 07:26:07;;;;;;;1.75;1.65;;;;;;;;;;5052279;28;20029;-67
2023/03/15 07:28:32;;;;;;;2.92;2.15;;;;;;;;;;5052252;28;20393;-70
2023/03/15 07:31:00;;;;;;;3.97;2.35;;;;;;;;;;5052183;28;20120;-69
2023/03/15 07:33:28;;;;;;;2.53;2.10;;;;;;;;;;5052140;28;20033;-70
2023/03/15 07:35:54;;;;;;;3.78;2.10;;;;;;;;;;5052116;28;20648;-69
2023/03/15 07:38:22;;;;;;;2.30;2.00;;;;;;;;;;5051964;28;20037;-70
2023/03/15 07:40:47;;;;;;;2.35;2.05;;;;;;;;;;5052159;28;20029;-70
2023/03/15 07:43:13;;;;;;;2.42;2.13;;;;;;;;;;5052127;28;20025;-69
2023/03/15 07:45:38;;;;;;;2.55;2.10;;;;;;;;;;5051955;28;20029;-70
2023/03/15 07:48:05;;;;;;;2.25;1.90;;;;;;;;;;5067495;28;20064;-70
2023/03/15 07:50:31;;;;;;;2.55;2.03;;;;;;;;;;5051154;28;20472;-70
2023/03/15 07:52:57;;;;;;;2.22;2.03;;;;;;;;;;5052034;28;20112;-70
2023/03/15 07:55:24;;;;;;;3.25;2.25;;;;;;;;;;5052209;28;20107;-68
2023/03/15 07:57:50;;;;;;;4.07;1.83;;;;;;;;;;5052261;28;20029;-69
2023/03/15 08:00:16;;;;;;;2.55;1.95;;;;;;;;;;5052218;28;20433;-69
2023/03/15 08:02:42;;;;;;;3.22;2.25;;;;;;;;;;5052740;28;20024;-69
2023/03/15 08:05:08;;;;;;;2.75;2.10;;;;;;;;;;5055800;28;20041;-68
2023/03/15 08:07:35;;;;;;;3.03;2.42;;;;;;;;;;5056126;28;20035;-70
2023/03/15 08:10:06;;;;;;;2.50;2.08;;;;;;;;;;5056020;28;20102;-70
2023/03/15 08:12:33;;;;;;;2.63;2.00;;;;;;;;;;5055856;28;20513;-68
2023/03/15 08:14:59;;;;;;;3.05;2.35;;;;;;;;;;5055875;28;20116;-69
2023/03/15 08:17:25;;;;;;;2.40;2.13;;;;;;;;;;5055696;28;20075;-70
2023/03/15 08:19:50;;;;;;;2.17;1.88;;;;;;;;;;5070993;28;20025;-70
2023/03/15 08:22:16;;;;;;;2.95;2.25;;;;;;;;;;5055632;28;20107;-69
2023/03/15 08:24:41;;;;;;;2.95;2.30;;;;;;;;;;5055351;28;20064;-70
2023/03/15 08:27:07;;;;;;;2.90;2.10;;;;;;;;;;5055538;28;20028;-70
2023/03/15 08:29:33;;;;;;;2.47;2.15;;;;;;;;;;5055330;28;20020;-69
2023/03/15 08:31:58;;;;;;;2.55;2.30;;;;;;;;;;5055314;28;20025;-68
2023/03/15 08:34:24;;;;;;;2.30;2.10;;;;;;;;;;5055241;28;20435;-69
2023/03/15 08:36:50;;;;;;;2.92;2.25;;;;;;;;;;5055497;28;20021;-68
2023/03/15 08:39:16;;;;;;;2.75;2.30;;;;;;;;;;5055072;28;20086;-70
2023/03/15 08:41:42;;;;;;;2.80;2.30;;;;;;;;;;5055236;28;20021;-69
2023/03/15 08:44:09;;;;;;;2.22;2.03;;;;;;;;;;5054990;28;20029;-70
2023/03/15 08:46:34;;;;;;;3.33;2.50;;;;;;;;;;5055072;28;20122;-71
2023/03/15 08:49:01;;;;;;;2.55;2.28;;;;;;;;;;5055387;28;20025;-71
2023/03/15 08:51:28;;;;;;;2.60;2.17;;;;;;;;;;5054942;28;20020;-70
2023/03/15 08:53:54;;;;;;;2.53;2.10;;;;;;;;;;5054925;28;20025;-69
2023/03/15 08:56:20;;;;;;;3.97;2.28;;;;;;;;;;5054901;28;20025;-69
2023/03/15 08:58:45;;;;;;;2.90;2.60;;;;;;;;;;5054787;28;20029;-69
2023/03/15 09:01:11;;;;;;;2.40;2.20;;;;;;;;;;5054856;28;20060;-70
2023/03/15 09:03:37;;;;;;;2.83;2.47;;;;;;;;;;5054630;28;20037;-69
2023/03/15 09:06:03;;;;;;;2.63;2.17;;;;;;;;;;5054485;28;20035;-68
2023/03/15 09:08:28;;;;;;;2.67;2.30;;;;;;;;;;5054486;28;20029;-69
2023/03/15 09:10:58;;;;;;;4.28;2.60;;;;;;;;;;5054563;28;20104;-67
2023/03/15 09:13:24;;;;;;;2.80;2.17;;;;;;;;;;5054210;28;20108;-69
2023/03/15 09:15:54;;;;;;;2.35;2.15;;;;;;;;;;5054428;28;20025;-68
2023/03/15 09:18:20;;;;;;;2.47;2.28;;;;;;;;;;5053227;28;20029;-69
2023/03/15 09:20:48;;;;;;;3.30;2.60;;;;;;;;;;5054398;28;20037;-67
2023/03/15 09:23:14;;;;;;;2.15;1.95;;;;;;;;;;5054307;28;20532;-69
2023/03/15 09:25:40;;;;;;;3.15;2.30;;;;;;;;;;5054207;28;20069;-67
2023/03/15 09:28:07;;;;;;;4.30;2.85;;;;;;;;;;5054220;28;20116;-70
2023/03/15 09:30:35;;;;;;;4.10;2.53;;;;;;;;;;5054156;28;20025;-69
2023/03/15 09:33:02;;;;;;;2.33;2.13;;;;;;;;;;5054324;28;20021;-68
2023/03/15 09:35:28;;;;;;;2.85;2.30;;;;;;;;;;5054499;28;20523;-67
2023/03/15 09:37:54;;;;;;;4.00;2.45;;;;;;;;;;5053680;28;20053;-69
2023/03/15 09:40:28;;;;;;;3.05;2.40;;;;;;;;;;5053937;28;20530;-68
2023/03/15 09:43:06;;;;;;;3.67;2.40;;;;;;;;;;5054134;28;20033;-70
2023/03/15 09:45:56;;;;;;;3.35;2.42;;;;;;;;;;5053756;28;20032;-69
2023/03/15 09:48:50;;;;;;;2.92;2.63;;;;;;;;;;5053819;28;20053;-69
2023/03/15 09:51:34;;;;;;;3.20;2.30;;;;;;;;;;5053706;28;20546;-67
2023/03/15 09:54:02;;;;;;;3.05;2.50;;;;;;;;;;5053871;28;20047;-70
2023/03/15 09:57:13;;;;;;;2.30;2.10;;;;;;;;;;5053820;28;20059;-70
2023/03/15 09:59:44;;;;;;;2.92;2.28;;;;;;;;;;5031290;28;20033;-70
2023/03/15 10:02:12;;;;;;;3.08;2.30;;;;;;;;;;5048072;28;20037;-68
2023/03/15 10:04:42;;;;;;;2.33;2.05;;;;;;;;;;5068838;28;20108;-70
2023/03/15 10:07:14;;;;;;;2.38;2.17;;;;;;;;;;5053578;28;20029;-68
2023/03/15 10:09:39;;;;;;;2.67;2.33;;;;;;;;;;5053466;28;20025;-69
2023/03/15 10:12:14;;;;;;;2.88;2.30;;;;;;;;;;5068908;28;20036;-69
2023/03/15 10:14:51;;;;;;;3.45;2.40;;;;;;;;;;5068803;28;20063;-69
2023/03/15 10:17:32;;;;;;;2.67;2.30;;;;;;;;;;5053661;28;20058;-69
2023/03/15 10:20:03;;;;;;;3.42;2.47;;;;;;;;;;5053250;28;20495;-70
2023/03/15 10:22:39;;;;;;;3.00;2.20;;;;;;;;;;5068629;28;20538;-70
2023/03/15 10:25:25;;;;;;;3.35;2.33;;;;;;;;;;5052665;28;20068;-70
2023/03/15 10:28:30;;;;;;;6.18;2.60;;;;;;;;;;5052884;28;20066;-71
2023/03/15 10:31:04;;;;;;;2.50;2.30;;;;;;;;;;5048355;28;20060;-70
2023/03/15 10:33:31;;;;;;;3.50;2.42;;;;;;;;;;5052987;28;20028;-69
2023/03/15 10:35:57;;;;;;;2.53;2.20;;;;;;;;;;5052983;28;20102;-69
2023/03/15 10:38:24;;;;;;;3.22;2.45;;;;;;;;;;5052678;28;20052;-69
2023/03/15 10:40:53;;;;;;;4.15;2.40;;;;;;;;;;5051555;28;20120;-69
2023/03/15 10:43:23;;;;;;;3.35;2.40;;;;;;;;;;5052820;28;20025;-68
2023/03/15 10:46:10;;;;;;;3.60;2.60;;;;;;;;;;5052767;28;20477;-70
2023/03/15 10:48:51;;;;;;;2.20;2.00;;;;;;;;;;5052988;28;20122;-68
2023/03/15 10:51:23;;;;;;;3.45;2.63;;;;;;;;;;5052820;28;20036;-70
2023/03/15 10:54:00;;;;;;;4.57;2.42;;;;;;;;;;5052688;28;20112;-70
2023/03/15 10:56:30;;;;;;;2.75;2.35;;;;;;;;;;5052738;28;20040;-69
2023/03/15 10:58:58;;;;;;;5.43;2.67;;;;;;;;;;5052603;28;20029;-70
2023/03/15 11:01:36;;;;;;;3.92;2.40;;;;;;;;;;5048996;28;20025;-68
2023/03/15 11:04:20;;;;;;;5.65;2.72;;;;;;;;;;5047172;28;20465;-69
2023/03/15 11:06:49;;;;;;;2.38;2.17;;;;;;;;;;5047654;28;20025;-68
2023/03/15 11:09:22;;;;;;;3.40;2.58;;;;;;;;;;5047970;28;20025;-69
2023/03/15 11:11:54;;;;;;;3.25;2.22;;;;;;;;;;5047620;28;20048;-68
2023/03/15 11:14:20;;;;;;;3.60;2.58;;;;;;;;;;5046867;28;20401;-67
2023/03/15 11:16:49;;;;;;;3.83;2.38;;;;;;;;;;5047634;28;20025;-67
2023/03/15 11:19:20;;;;;;;5.50;2.63;;;;;;;;;;5047916;28;20052;-67
2023/03/15 11:21:48;;;;;;;4.15;2.58;;;;;;;;;;5047757;28;20293;-68
2023/03/15 11:24:28;;;;;;;3.63;2.45;;;;;;;;;;5048248;28;20116;-68
2023/03/15 11:26:56;;;;;;;2.70;2.50;;;;;;;;;;5041081;28;20040;-68
2023/03/15 11:29:26;;;;;;;2.88;2.47;;;;;;;;;;5047603;28;20029;-69
2023/03/15 11:31:52;;;;;;;3.17;2.35;;;;;;;;;;5048095;28;20041;-68
2023/03/15 11:34:52;;;;;;;2.78;2.50;;;;;;;;;;5051036;28;20096;-69
2023/03/15 11:37:27;;;;;;;3.05;2.63;;;;;;;;;;5047323;28;20139;-70
2023/03/15 11:40:33;;;;;;;3.95;2.50;;;;;;;;;;5052853;28;20037;-69
2023/03/15 11:43:07;;;;;;;4.82;2.60;;;;;;;;;;5051825;28;20045;-69
2023/03/15 11:45:44;;;;;;;4.30;2.67;;;;;;;;;;5050395;28;20029;-69
2023/03/15 11:48:13;;;;;;;3.08;2.67;;;;;;;;;;5055268;28;20032;-70
2023/03/15 11:50:39;;;;;;;3.80;2.50;;;;;;;;;;5056114;28;20374;-70
2023/03/15 11:53:05;;;;;;;4.95;2.95;;;;;;;;;;5055984;28;20025;-69
2023/03/15 11:55:32;;;;;;;3.78;2.70;;;;;;;;;;5052031;28;20084;-69
2023/03/15 11:58:26;;;;;;;4.15;2.60;;;;;;;;;;5054125;28;20500;-70
2023/03/15 12:00:54;;;;;;;3.25;2.85;;;;;;;;;;5050976;28;20043;-70
2023/03/15 12:03:29;;;;;;;6.72;2.83;;;;;;;;;;5054063;28;20033;-69
2023/03/15 12:06:16;;;;;;;4.25;2.72;;;;;;;;;;5052239;28;20075;-67
2023/03/15 12:08:54;;;;;;;3.50;2.83;;;;;;;;;;5054291;28;20115;-67
2023/03/15 12:11:22;;;;;;;5.43;3.03;;;;;;;;;;5054209;28;20537;-67
2023/03/15 12:13:57;;;;;;;3.72;3.00;;;;;;;;;;5054430;28;20370;-67
2023/03/15 12:16:29;;;;;;;4.78;3.22;;;;;;;;;;5054059;28;20473;-68
2023/03/15 12:19:00;;;;;;;4.28;2.97;;;;;;;;;;5050839;28;20029;-68
2023/03/15 12:21:34;;;;;;;4.00;3.20;;;;;;;;;;5053053;28;20029;-67
2023/03/15 12:24:05;;;;;;;4.93;3.22;;;;;;;;;;5053605;28;20033;-67
2023/03/15 12:26:41;;;;;;;5.85;3.50;;;;;;;;;;5046244;28;20068;-68
2023/03/15 12:29:28;;;;;;;4.57;3.55;;;;;;;;;;5051020;28;20025;-67
2023/03/15 12:32:02;;;;;;;4.38;3.05;;;;;;;;;;5053236;28;20074;-68
2023/03/15 12:34:32;;;;;;;5.13;3.63;;;;;;;;;;5050630;28;20102;-68
2023/03/15 12:37:06;;;;;;;6.30;3.88;;;;;;;;;;5053279;28;20487;-69
2023/03/15 12:39:47;;;;;;;5.10;3.40;;;;;;;;;;5050186;28;20045;-67
2023/03/15 12:42:35;;;;;;;6.65;3.63;;;;;;;;;;5051496;28;20032;-68
2023/03/15 12:45:16;;;;;;;5.75;4.05;;;;;;;;;;5050886;28;20025;-68
2023/03/15 12:47:51;;;;;;;5.07;3.75;;;;;;;;;;5051014;28;20025;-67
2023/03/15 12:50:38;;;;;;;4.32;3.53;;;;;;;;;;5049888;28;20031;-68
2023/03/15 12:53:16;;;;;;;4.88;3.55;;;;;;;;;;5051304;28;20045;-68
2023/03/15 12:55:42;;;;;;;6.32;4.00;;;;;;;;;;5050958;28;20104;-68
2023/03/15 12:58:14;;;;;;;5.03;3.92;;;;;;;;;;5053133;28;20064;-68
2023/03/15 13:00:42;;;;;;;4.55;3.53;;;;;;;;;;5051912;28;20029;-68
2023/03/15 13:03:17;;;;;;;6.22;3.83;;;;;;;;;;5053584;28;20025;-69
2023/03/15 13:06:13;;;;;;;6.00;4.13;;;;;;;;;;5053527;28;20037;-69
2023/03/15 13:09:15;;;;;;;5.50;3.97;;;;;;;;;;5053086;28;20040;-69
2023/03/15 13:12:00;;;;;;;6.03;4.10;;;;;;;;;;5053188;28;20057;-69
2023/03/15 13:14:31;;;;;;;7.07;4.00;;;;;;;;;;5052970;28;20524;-69
2023/03/15 13:17:26;;;;;;;7.90;4.50;;;;;;;;;;5052950;28;20516;-69
2023/03/15 13:20:15;;;;;;;8.75;4.45;;;;;;;;;;5052811;28;20116;-69
2023/03/15 13:23:00;;;;;;;7.05;4.00;;;;;;;;;;5052957;28;20036;-70
2023/03/15 13:25:38;;;;;;;5.88;4.43;;;;;;;;;;5044031;28;20417;-69
2023/03/15 13:28:21;;;;;;;7.32;4.70;;;;;;;;;;5052894;28;20051;-69
2023/03/15 13:30:51;;;;;;;5.85;4.35;;;;;;;;;;5051366;28;20469;-69
2023/03/15 13:33:27;;;;;;;6.00;4.28;;;;;;;;;;5052675;28;20033;-69
2023/03/15 13:36:00;;;;;;;5.22;4.28;;;;;;;;;;5052629;28;20033;-69
2023/03/15 13:38:33;;;;;;;7.43;4.68;;;;;;;;;;5052598;28;20386;-68
2023/03/15 13:41:02;;;;;;;6.50;4.40;;;;;;;;;;5052400;28;20033;-69
2023/03/15 13:43:38;;;;;;;7.00;4.25;;;;;;;;;;5051101;28;20847;-69
2023/03/15 13:46:04;;;;;;;8.35;4.70;;;;;;;;;;5052385;28;20131;-69
2023/03/15 13:48:34;;;;;;;8.75;4.85;;;;;;;;;;5052360;28;20728;-69
2023/03/15 13:51:07;;;;;;;8.38;5.20;;;;;;;;;;5034730;28;20029;-69
2023/03/15 13:53:35;;;;;;;7.45;5.00;;;;;;;;;;5050429;28;20060;-68
2023/03/15 13:56:01;;;;;;;6.78;4.95;;;;;;;;;;5050117;28;20021;-68
2023/03/15 13:58:27;;;;;;;8.30;4.80;;;;;;;;;;5050823;28;20434;-69
2023/03/15 14:00:59;;;;;;;7.72;5.38;;;;;;;;;;5051104;28;20040;-69
2023/03/15 14:03:26;;;;;;;9.10;5.38;;;;;;;;;;5049855;28;20476;-68
2023/03/15 14:05:54;;;;;;;7.32;5.18;;;;;;;;;;5050527;28;20058;-69
2023/03/15 14:08:39;;;;;;;10.65;5.65;;;;;;;;;;5049151;28;20514;-68
2023/03/15 14:11:08;;;;;;;7.47;5.05;;;;;;;;;;5049595;28;20124;-69
2023/03/15 14:13:46;;;;;;;8.67;5.10;;;;;;;;;;5050247;28;20032;-70
2023/03/15 14:16:32;;;;;;;8.07;5.15;;;;;;;;;;5051886;28;20258;-70
2023/03/15 14:19:31;;;;;;;11.20;5.43;;;;;;;;;;5051663;28;20060;-71
2023/03/15 14:21:59;;;;;;;7.53;5.22;;;;;;;;;;5047219;28;20036;-71
2023/03/15 14:24:39;;;;;;;8.27;5.15;;;;;;;;;;5050903;28;20040;-69
2023/03/15 14:27:08;;;;;;;10.05;5.15;;;;;;;;;;5049365;28;20059;-70
2023/03/15 14:29:36;;;;;;;9.70;5.65;;;;;;;;;;5051243;28;20105;-69
2023/03/15 14:32:21;;;;;;;12.63;5.80;;;;;;;;;;5051379;28;20086;-70
2023/03/15 14:34:48;;;;;;;8.90;5.35;;;;;;;;;;5049664;28;20017;-69
2023/03/15 14:37:37;;;;;;;8.98;5.10;;;;;;;;;;5050773;28;20025;-69
2023/03/15 14:40:14;;;;;;;10.13;5.60;;;;;;;;;;5049112;28;20444;-70
2023/03/15 14:42:40;;;;;;;7.60;5.47;;;;;;;;;;5048863;28;20090;-70
2023/03/15 14:45:06;;;;;;;9.57;5.50;;;;;;;;;;5049259;28;21425;-70
2023/03/15 14:47:43;;;;;;;10.35;5.68;;;;;;;;;;5050037;28;20481;-69
2023/03/15 14:50:14;;;;;;;7.88;5.30;;;;;;;;;;5051235;28;20029;-70
2023/03/15 14:52:41;;;;;;;12.65;5.80;;;;;;;;;;5050893;28;20029;-70
2023/03/15 14:55:13;;;;;;;9.82;5.38;;;;;;;;;;5049275;28;20111;-68
2023/03/15 14:57:42;;;;;;;8.05;5.25;;;;;;;;;;5048532;28;20025;-69
2023/03/15 15:00:15;;;;;;;8.93;5.50;;;;;;;;;;5050698;28;20024;-70